This is the latest recevied weather packets stored in our database for station/object AC4AG. If no packets are shown the sender has not sent any weather packets the latest 10 day(s).
| Time | Temp. | Humidity | Pressure | Rain* | Wind** | Luminosity | Snow |
|---|---|---|---|---|---|---|---|
| 1777236561 | 23.89° C | 53% | 1013 hPa | 0 mm | - | 580 W/m² | - |
| 1777236258 | 23.89° C | 52% | 1013 hPa | 0 mm | - | 591 W/m² | - |
| 1777235954 | 23.33° C | 54% | 1012.9 hPa | 0 mm | - | 608 W/m² | - |
| 1777235650 | 23.33° C | 53% | 1013.1 hPa | 0 mm | - | 628 W/m² | - |
| 1777235348 | 22.22° C | 55% | 1013.1 hPa | 0 mm | - | 633 W/m² | - |
| 1777235043 | 22.22° C | 55% | 1013.5 hPa | 0 mm | - | 646 W/m² | - |
| 1777234740 | 22.78° C | 53% | 1013.1 hPa | 0 mm | - | 656 W/m² | - |
| 1777234435 | 22.78° C | 55% | 1013.2 hPa | 0 mm | - | 676 W/m² | - |
| 1777234130 | 22.78° C | 55% | 1013.4 hPa | 0 mm | - | 696 W/m² | - |
| 1777233827 | 22.22° C | 56% | 1013.4 hPa | 0 mm | - | 704 W/m² | - |
| 1777233524 | 22.22° C | 57% | 1013.6 hPa | 0 mm | - | 725 W/m² | - |
| 1777233222 | 22.78° C | 57% | 1013.5 hPa | 0 mm | - | 737 W/m² | - |
| 1777232917 | 22.22° C | 55% | 1013.6 hPa | 0 mm | - | 751 W/m² | - |
| 1777232616 | 22.22° C | 55% | 1013.8 hPa | 0 mm | - | 762 W/m² | - |
| 1777232314 | 22.78° C | 53% | 1013.8 hPa | 0 mm | - | 773 W/m² | - |
| 1777232010 | 21.67° C | 57% | 1013.9 hPa | 0 mm | - | 795 W/m² | - |
| 1777231708 | 21.67° C | 57% | 1013.6 hPa | 0 mm | - | 792 W/m² | - |
| 1777231404 | 22.78° C | 57% | 1014 hPa | 0 mm | - | 792 W/m² | - |
| 1777231100 | 22.22° C | 60% | 1014 hPa | 0 mm | - | 795 W/m² | - |
| 1777230796 | 21.67° C | 59% | 1014 hPa | 0 mm | - | 814 W/m² | - |
| 1777230491 | 21.11° C | 62% | 1014.1 hPa | 0 mm | - | 830 W/m² | - |
| 1777230188 | 21.11° C | 62% | 1014 hPa | 0 mm | - | 836 W/m² | - |
| 1777229884 | 21.67° C | 62% | 1014.1 hPa | 0 mm | - | 840 W/m² | - |
| 1777229581 | 21.11° C | 61% | 1014.1 hPa | 0 mm | - | 861 W/m² | - |
| 1777229278 | 21.67° C | 61% | 1014.2 hPa | 0 mm | - | 830 W/m² | - |
* Rain latest hour (hover to see other rain measurements)
** Current wind speed in m/s (hover to see current wind gust speed)